createdAt,value
2023-01-21T00:01:15.004Z,100857.31
2023-01-21T00:03:43.332Z,100849.41
2023-01-21T00:06:14.823Z,100867.06
2023-01-21T00:08:43.202Z,100869.75
2023-01-21T00:11:14.621Z,100873.34
2023-01-21T00:13:44.514Z,100874.25
2023-01-21T00:16:13.405Z,100879.50
2023-01-21T00:18:41.437Z,100873.38
2023-01-21T00:21:10.901Z,100873.38
2023-01-21T00:23:39.207Z,100868.09
2023-01-21T00:26:11.425Z,100877.81
2023-01-21T00:28:41.665Z,100874.31
2023-01-21T00:31:11.784Z,100873.47
2023-01-21T00:33:40.166Z,100881.41
2023-01-21T00:36:14.514Z,100880.50
2023-01-21T00:38:42.250Z,100873.47
2023-01-21T00:41:13.262Z,100885.72
2023-01-21T00:43:42.469Z,100880.44
2023-01-21T00:46:11.210Z,100891.88
2023-01-21T00:48:40.392Z,100889.25
2023-01-21T00:51:09.619Z,100891.88
2023-01-21T00:53:41.855Z,100899.78
2023-01-21T00:56:12.771Z,100901.56
2023-01-21T00:58:43.381Z,100898.97
2023-01-21T01:01:19.144Z,100884.03
2023-01-21T01:03:48.915Z,100894.59
2023-01-21T01:06:24.064Z,100900.78
2023-01-21T01:08:52.652Z,100915.75
2023-01-21T01:11:25.240Z,100909.63
2023-01-21T01:13:55.119Z,100919.28
2023-01-21T01:16:23.244Z,100908.75
2023-01-21T01:18:52.574Z,100911.44
2023-01-21T01:21:22.377Z,100921.06
2023-01-21T01:23:54.772Z,100936.03
2023-01-21T01:26:22.856Z,100928.97
2023-01-21T01:28:50.574Z,100932.53
2023-01-21T01:31:19.816Z,100943.09
2023-01-21T01:33:48.327Z,100948.38
2023-01-21T01:36:25.945Z,100948.38
2023-01-21T01:38:54.271Z,100954.53
2023-01-21T01:41:29.906Z,100960.72
2023-01-21T01:43:59.923Z,100951.91
2023-01-21T01:46:36.577Z,100964.25
2023-01-21T01:49:15.839Z,100960.75
2023-01-21T01:51:54.659Z,100966.03
2023-01-21T01:54:29.977Z,100965.19
2023-01-21T01:57:03.121Z,100955.56
2023-01-21T01:59:32.031Z,100967.00
2023-01-21T02:02:07.934Z,100961.72
2023-01-21T02:04:56.963Z,100965.25
2023-01-21T02:07:26.371Z,100976.66
2023-01-21T02:09:55.281Z,100974.91
2023-01-21T02:12:23.593Z,100975.78
2023-01-21T02:14:51.579Z,100963.47
2023-01-21T02:17:34.938Z,100978.38
2023-01-21T02:20:30.367Z,100973.13
2023-01-21T02:23:20.079Z,100985.44
2023-01-21T02:26:31.181Z,100984.56
2023-01-21T02:29:16.089Z,100996.00
2023-01-21T02:32:19.281Z,100995.97
2023-01-21T02:35:05.512Z,100999.53
2023-01-21T02:38:02.254Z,100995.13
2023-01-21T02:40:53.218Z,100995.16
2023-01-21T02:43:40.402Z,100987.25
2023-01-21T02:46:49.840Z,101003.06
2023-01-21T02:49:42.266Z,100998.72
2023-01-21T02:52:22.144Z,100990.81
2023-01-21T02:54:57.059Z,101011.00
2023-01-21T02:57:51.106Z,101012.78
2023-01-21T03:00:29.617Z,101011.00
2023-01-21T03:03:24.244Z,101020.72
2023-01-21T03:06:30.118Z,101025.97
2023-01-21T03:09:03.847Z,101032.13
2023-01-21T03:11:32.241Z,101018.94
2023-01-21T03:14:59.552Z,101018.94
2023-01-21T03:17:44.856Z,101017.16
2023-01-21T03:20:39.697Z,101018.03
2023-01-21T03:23:17.532Z,101025.97
2023-01-21T03:25:47.302Z,101020.66
2023-01-21T03:28:30.785Z,101032.09
2023-01-21T03:31:09.538Z,101034.69
2023-01-21T03:33:45.861Z,101042.59
2023-01-21T03:36:34.813Z,101048.75
2023-01-21T03:39:13.309Z,101057.50
2023-01-21T03:41:41.559Z,101042.53
2023-01-21T03:44:09.539Z,101045.16
2023-01-21T03:46:39.853Z,101063.59
2023-01-21T03:49:33.920Z,101062.69
2023-01-21T03:52:04.653Z,101043.28
2023-01-21T03:54:32.991Z,101067.91
2023-01-21T03:57:00.797Z,101062.56
2023-01-21T03:59:28.630Z,101059.06
2023-01-21T04:01:56.301Z,101073.97
2023-01-21T04:04:24.154Z,101067.84
2023-01-21T04:06:51.962Z,101074.84
2023-01-21T04:09:19.719Z,101066.00
2023-01-21T04:11:47.662Z,101083.56
2023-01-21T04:14:15.488Z,101085.34
2023-01-21T04:16:43.466Z,101087.09
2023-01-21T04:19:11.187Z,101081.81
2023-01-21T04:21:38.883Z,101085.31
2023-01-21T04:24:07.120Z,101073.84
2023-01-21T04:26:35.288Z,101094.03
2023-01-21T04:29:03.093Z,101086.19
2023-01-21T04:31:30.816Z,101090.53
2023-01-21T04:33:59.058Z,101098.47
2023-01-21T04:36:26.772Z,101089.66
2023-01-21T04:38:54.721Z,101091.41
2023-01-21T04:41:25.166Z,101090.50
2023-01-21T04:43:53.192Z,101098.38
2023-01-21T04:46:20.924Z,101111.53
2023-01-21T04:48:51.628Z,101107.13
2023-01-21T04:51:19.509Z,101119.41
2023-01-21T04:53:47.266Z,101125.56
2023-01-21T04:56:15.265Z,101122.03
2023-01-21T04:58:43.092Z,101124.69
2023-01-21T05:01:11.072Z,101132.56
2023-01-21T05:03:39.003Z,101118.50
2023-01-21T05:06:07.058Z,101124.63
2023-01-21T05:08:34.717Z,101119.38
2023-01-21T05:11:02.432Z,101135.19
2023-01-21T05:13:30.198Z,101137.78
2023-01-21T05:16:08.542Z,101132.50
2023-01-21T05:18:37.782Z,101126.22
2023-01-21T05:21:06.275Z,101145.50
2023-01-21T05:23:34.164Z,101158.59
2023-01-21T05:26:01.876Z,101163.75
2023-01-21T05:28:29.637Z,101165.47
2023-01-21T05:31:04.366Z,101158.44
2023-01-21T05:33:34.595Z,101170.66
2023-01-21T05:36:04.641Z,101174.13
2023-01-21T05:38:32.442Z,101175.91
2023-01-21T05:41:05.837Z,101176.75
2023-01-21T05:43:33.791Z,101182.88
2023-01-21T05:46:01.744Z,101166.09
2023-01-21T05:48:29.649Z,101177.53
2023-01-21T05:50:58.445Z,101188.03
2023-01-21T05:53:26.763Z,101185.41
2023-01-21T05:55:56.273Z,101195.03
2023-01-21T05:58:25.665Z,101196.75
2023-01-21T06:00:54.392Z,101192.38
2023-01-21T06:03:22.161Z,101209.88
2023-01-21T06:05:53.390Z,101212.50
2023-01-21T06:08:21.225Z,101216.81
2023-01-21T06:10:49.179Z,101215.91
2023-01-21T06:13:16.939Z,101234.28
2023-01-21T06:15:44.823Z,101225.47
2023-01-21T06:18:12.527Z,101219.34
2023-01-21T06:20:41.125Z,101228.97
2023-01-21T06:23:08.982Z,101220.16
2023-01-21T06:25:36.848Z,101234.22
2023-01-21T06:28:04.649Z,101226.34
2023-01-21T06:30:32.941Z,101229.78
2023-01-21T06:33:00.637Z,101240.41
2023-01-21T06:35:28.520Z,101250.00
2023-01-21T06:37:56.258Z,101252.59
2023-01-21T06:40:24.064Z,101252.59
2023-01-21T06:42:51.755Z,101252.63
2023-01-21T06:45:19.567Z,101257.91
2023-01-21T06:47:47.609Z,101264.03
2023-01-21T06:50:17.905Z,101272.84
2023-01-21T06:52:48.436Z,101274.56
2023-01-21T06:55:17.022Z,101266.75
2023-01-21T06:57:45.547Z,101272.94
2023-01-21T07:00:14.443Z,101278.28
2023-01-21T07:02:42.334Z,101280.94
2023-01-21T07:05:10.235Z,101285.38
2023-01-21T07:07:37.965Z,101294.19
2023-01-21T07:10:06.758Z,101282.72
2023-01-21T07:12:34.565Z,101284.50
2023-01-21T07:15:02.472Z,101290.66
2023-01-21T07:17:30.238Z,101289.78
2023-01-21T07:19:58.117Z,101280.09
2023-01-21T07:22:26.015Z,101302.06
2023-01-21T07:24:53.854Z,101296.81
2023-01-21T07:27:24.357Z,101297.69
2023-01-21T07:29:52.109Z,101309.06
2023-01-21T07:32:20.080Z,101306.41
2023-01-21T07:34:47.987Z,101305.56
2023-01-21T07:37:15.872Z,101303.75
2023-01-21T07:39:43.750Z,101312.56
2023-01-21T07:42:11.410Z,101313.44
2023-01-21T07:44:39.251Z,101326.59
2023-01-21T07:47:07.089Z,101323.97
2023-01-21T07:49:35.042Z,101315.22
2023-01-21T07:52:02.814Z,101314.34
2023-01-21T07:54:30.546Z,101312.56
2023-01-21T07:56:58.642Z,101322.28
2023-01-21T07:59:26.371Z,101325.81
2023-01-21T08:01:54.126Z,101339.00
2023-01-21T08:04:22.906Z,101346.03
2023-01-21T08:06:52.908Z,101338.03
2023-01-21T08:09:21.012Z,101355.63
2023-01-21T08:11:48.746Z,101341.59
2023-01-21T08:14:16.579Z,101345.09
2023-01-21T08:16:44.266Z,101346.84
2023-01-21T08:19:13.893Z,101357.41
2023-01-21T08:21:41.847Z,101358.34
2023-01-21T08:24:10.549Z,101346.97
2023-01-21T08:26:38.473Z,101360.97
2023-01-21T08:29:06.327Z,101351.34
2023-01-21T08:31:34.298Z,101354.03
2023-01-21T08:34:02.050Z,101362.84
2023-01-21T08:36:29.765Z,101370.75
2023-01-21T08:39:06.283Z,101367.28
2023-01-21T08:41:34.316Z,101373.44
2023-01-21T08:44:21.993Z,101370.84
2023-01-21T08:47:09.652Z,101374.41
2023-01-21T08:49:37.402Z,101383.28
2023-01-21T08:52:05.539Z,101389.47
2023-01-21T08:54:33.413Z,101392.22
2023-01-21T08:57:01.225Z,101387.88
2023-01-21T08:59:30.155Z,101386.19
2023-01-21T09:01:58.185Z,101385.31
2023-01-21T09:04:27.606Z,101387.09
2023-01-21T09:06:55.497Z,101396.81
2023-01-21T09:09:23.349Z,101394.13
2023-01-21T09:11:52.366Z,101388.84
2023-01-21T09:14:21.487Z,101395.13
2023-01-21T09:16:49.902Z,101390.69
2023-01-21T09:19:18.177Z,101399.50
2023-01-21T09:21:45.971Z,101410.09
2023-01-21T09:24:13.846Z,101403.97
2023-01-21T09:26:44.880Z,101387.28
2023-01-21T09:29:12.797Z,101396.03
2023-01-21T09:31:40.659Z,101394.34
2023-01-21T09:34:10.785Z,101411.97
2023-01-21T09:36:39.125Z,101404.97
2023-01-21T09:39:07.764Z,101420.00
2023-01-21T09:42:03.680Z,101407.78
2023-01-21T09:44:43.742Z,101419.25
2023-01-21T09:47:37.486Z,101414.88
2023-01-21T09:50:22.147Z,101413.16
2023-01-21T09:52:59.844Z,101422.78
2023-01-21T09:55:47.557Z,101412.28
2023-01-21T09:58:44.984Z,101403.44
2023-01-21T10:01:24.482Z,101416.69
2023-01-21T10:04:34.480Z,101418.44
2023-01-21T10:07:22.944Z,101422.88
2023-01-21T10:10:39.071Z,101424.66
2023-01-21T10:13:48.177Z,101421.16
2023-01-21T10:16:30.862Z,101412.44
2023-01-21T10:19:02.873Z,101408.00
2023-01-21T10:21:38.395Z,101408.06
2023-01-21T10:24:20.274Z,101415.16
2023-01-21T10:26:51.070Z,101416.03
2023-01-21T10:29:23.812Z,101409.81
2023-01-21T10:32:02.590Z,101412.50
2023-01-21T10:34:33.383Z,101409.00
2023-01-21T10:37:30.580Z,101428.41
2023-01-21T10:40:48.611Z,101416.97
2023-01-21T10:43:49.080Z,101409.97
2023-01-21T10:46:22.527Z,101408.22
2023-01-21T10:49:31.754Z,101418.78
2023-01-21T10:52:13.884Z,101409.97
2023-01-21T10:55:24.800Z,101405.53
2023-01-21T10:58:21.827Z,101402.00
2023-01-21T11:00:52.075Z,101397.59
2023-01-21T11:03:47.263Z,101397.56
2023-01-21T11:06:18.672Z,101393.16
2023-01-21T11:08:49.977Z,101398.38
2023-01-21T11:11:30.564Z,101390.50
2023-01-21T11:13:58.515Z,101384.34
2023-01-21T11:16:46.587Z,101394.06
2023-01-21T11:19:21.680Z,101401.97
2023-01-21T11:22:17.666Z,101377.34
2023-01-21T11:24:51.445Z,101384.34
2023-01-21T11:27:34.819Z,101388.78
2023-01-21T11:30:15.661Z,101386.94
2023-01-21T11:32:52.138Z,101399.25
2023-01-21T11:35:24.231Z,101399.28
2023-01-21T11:37:52.070Z,101384.28
2023-01-21T11:40:25.864Z,101394.88
2023-01-21T11:42:57.567Z,101405.41
2023-01-21T11:45:38.195Z,101413.31
2023-01-21T11:48:36.790Z,101415.88
2023-01-21T11:51:07.905Z,101401.81
2023-01-21T11:53:35.675Z,101406.19
2023-01-21T11:56:07.938Z,101414.13
2023-01-21T11:58:42.701Z,101409.69
2023-01-21T12:01:21.850Z,101407.03
2023-01-21T12:03:56.292Z,101414.13
2023-01-21T12:06:30.605Z,101422.91
2023-01-21T12:09:04.837Z,101410.56
2023-01-21T12:11:32.758Z,101407.91
2023-01-21T12:14:29.443Z,101407.94
2023-01-21T12:17:30.386Z,101394.69
2023-01-21T12:20:26.142Z,101398.25
2023-01-21T12:23:28.045Z,101397.34
2023-01-21T12:26:20.298Z,101390.31
2023-01-21T12:28:59.156Z,101394.69
2023-01-21T12:31:37.590Z,101399.97
2023-01-21T12:34:34.341Z,101389.38
2023-01-21T12:37:10.310Z,101378.81
2023-01-21T12:39:40.175Z,101394.69
2023-01-21T12:42:38.431Z,101385.88
2023-01-21T12:45:27.685Z,101394.66
2023-01-21T12:48:07.072Z,101393.81
2023-01-21T12:50:41.187Z,101376.25
2023-01-21T12:53:33.533Z,101392.97
2023-01-21T12:56:39.762Z,101387.66
2023-01-21T12:59:33.634Z,101399.97
2023-01-21T13:02:34.176Z,101403.47
2023-01-21T13:05:52.066Z,101404.34
2023-01-21T13:08:41.428Z,101401.75
2023-01-21T13:11:15.822Z,101389.44
2023-01-21T13:14:08.949Z,101401.75
2023-01-21T13:16:43.400Z,101390.31
2023-01-21T13:19:14.385Z,101394.72
2023-01-21T13:22:10.767Z,101387.72
2023-01-21T13:25:04.819Z,101404.44
2023-01-21T13:27:50.589Z,101401.81
2023-01-21T13:30:44.954Z,101387.75
2023-01-21T13:33:39.904Z,101393.91
2023-01-21T13:36:21.821Z,101397.47
2023-01-21T13:39:05.448Z,101393.97
2023-01-21T13:42:10.710Z,101401.03
2023-01-21T13:44:57.311Z,101384.31
2023-01-21T13:48:02.743Z,101405.44
2023-01-21T13:50:40.047Z,101390.53
2023-01-21T13:53:58.997Z,101396.69
2023-01-21T13:57:02.304Z,101398.41
2023-01-21T13:59:40.155Z,101397.53
2023-01-21T14:02:37.056Z,101387.84
2023-01-21T14:05:46.039Z,101400.13
2023-01-21T14:08:24.387Z,101401.91
2023-01-21T14:11:04.264Z,101398.41
2023-01-21T14:14:02.680Z,101413.34
2023-01-21T14:17:16.165Z,101415.09
2023-01-21T14:20:18.225Z,101411.63
2023-01-21T14:23:08.029Z,101417.72
2023-01-21T14:25:54.088Z,101413.34
2023-01-21T14:28:53.067Z,101408.94
2023-01-21T14:31:26.975Z,101411.59
2023-01-21T14:34:12.165Z,101421.28
2023-01-21T14:37:31.065Z,101420.41
2023-01-21T14:40:13.738Z,101424.81
2023-01-21T14:42:49.277Z,101422.16
2023-01-21T14:45:25.602Z,101421.28
2023-01-21T14:48:41.659Z,101430.06
2023-01-21T14:51:31.821Z,101430.88
2023-01-21T14:54:26.842Z,101443.19
2023-01-21T14:57:36.911Z,101447.56
2023-01-21T15:00:34.010Z,101439.63
2023-01-21T15:03:27.518Z,101441.38
2023-01-21T15:06:22.022Z,101440.47
2023-01-21T15:09:28.591Z,101417.59
2023-01-21T15:12:34.016Z,101427.19
2023-01-21T15:15:31.022Z,101443.91
2023-01-21T15:18:10.336Z,101460.63
2023-01-21T15:20:57.804Z,101440.44
2023-01-21T15:23:30.231Z,101451.88
2023-01-21T15:26:12.658Z,101441.31
2023-01-21T15:28:57.619Z,101449.22
2023-01-21T15:31:26.093Z,101450.94
2023-01-21T15:33:58.924Z,101443.91
2023-01-21T15:36:34.644Z,101439.50
2023-01-21T15:39:16.574Z,101452.72
2023-01-21T15:42:10.605Z,101446.56
2023-01-21T15:44:59.141Z,101453.59
2023-01-21T15:47:48.815Z,101461.50
2023-01-21T15:50:30.137Z,101453.59
2023-01-21T15:53:16.717Z,101462.25
2023-01-21T15:56:11.772Z,101457.03
2023-01-21T15:58:49.843Z,101449.09
2023-01-21T16:01:34.558Z,101457.00
2023-01-21T16:04:27.111Z,101471.13
2023-01-21T16:07:09.451Z,101468.50
2023-01-21T16:10:04.731Z,101477.28
2023-01-21T16:13:36.732Z,101475.47
2023-01-21T16:16:47.699Z,101470.16
2023-01-21T16:19:21.181Z,101479.88
2023-01-21T16:21:57.025Z,101471.97
2023-01-21T16:24:29.382Z,101472.00
2023-01-21T16:27:24.082Z,101471.16
2023-01-21T16:30:04.282Z,101471.13
2023-01-21T16:32:32.616Z,101482.59
2023-01-21T16:35:00.659Z,101477.31
2023-01-21T16:37:30.771Z,101479.94
2023-01-21T16:40:29.963Z,101481.69
2023-01-21T16:43:12.949Z,101494.91
2023-01-21T16:45:47.462Z,101486.09
2023-01-21T16:48:29.708Z,101491.41
2023-01-21T16:50:58.538Z,101493.16
2023-01-21T16:53:26.839Z,101501.97
2023-01-21T16:55:58.037Z,101493.16
2023-01-21T16:58:34.200Z,101500.09
2023-01-21T17:01:18.130Z,101494.88
2023-01-21T17:03:49.317Z,101494.88
2023-01-21T17:06:29.116Z,101492.25
2023-01-21T17:09:18.578Z,101498.41
2023-01-21T17:11:47.457Z,101503.69
2023-01-21T17:14:30.783Z,101508.16
2023-01-21T17:17:02.405Z,101509.06
2023-01-21T17:19:42.560Z,101500.25
2023-01-21T17:22:25.447Z,101506.41
2023-01-21T17:25:07.623Z,101515.19
2023-01-21T17:27:38.083Z,101496.66
2023-01-21T17:30:32.742Z,101507.25
2023-01-21T17:33:02.623Z,101498.47
2023-01-21T17:35:33.582Z,101506.38
2023-01-21T17:38:04.378Z,101513.47
2023-01-21T17:40:42.729Z,101520.50
2023-01-21T17:43:25.476Z,101520.56
2023-01-21T17:45:56.415Z,101518.75
2023-01-21T17:48:35.244Z,101518.78
2023-01-21T17:51:23.759Z,101509.97
2023-01-21T17:54:05.933Z,101513.47
2023-01-21T17:56:38.568Z,101518.75
2023-01-21T17:59:28.325Z,101521.44
2023-01-21T18:01:56.447Z,101526.66
2023-01-21T18:04:24.335Z,101509.03
2023-01-21T18:06:54.518Z,101524.94
2023-01-21T18:09:25.230Z,101517.91
2023-01-21T18:11:57.226Z,101520.59
2023-01-21T18:14:26.408Z,101518.81
2023-01-21T18:16:54.812Z,101526.75
2023-01-21T18:19:37.193Z,101525.00
2023-01-21T18:22:06.835Z,101527.63
2023-01-21T18:24:35.578Z,101525.84
2023-01-21T18:27:03.503Z,101517.94
2023-01-21T18:29:31.559Z,101516.19
2023-01-21T18:31:59.498Z,101503.84
2023-01-21T18:34:29.034Z,101509.13
2023-01-21T18:36:57.729Z,101506.50
2023-01-21T18:39:25.737Z,101510.00
2023-01-21T18:41:53.509Z,101501.22
2023-01-21T18:44:21.209Z,101505.63
2023-01-21T18:46:49.447Z,101512.66
2023-01-21T18:49:20.298Z,101506.53
2023-01-21T18:51:48.145Z,101516.19
2023-01-21T18:54:18.228Z,101500.34
2023-01-21T18:56:46.517Z,101506.53
2023-01-21T18:59:17.906Z,101503.94
2023-01-21T19:01:45.700Z,101500.28
2023-01-21T19:04:18.279Z,101503.81
2023-01-21T19:06:55.369Z,101502.09
2023-01-21T19:09:25.699Z,101510.00
2023-01-21T19:11:53.525Z,101504.78
2023-01-21T19:14:21.256Z,101496.81
2023-01-21T19:16:49.026Z,101512.69
2023-01-21T19:19:20.415Z,101508.31
2023-01-21T19:21:48.376Z,101500.38
2023-01-21T19:24:16.154Z,101504.72
2023-01-21T19:26:44.041Z,101487.13
2023-01-21T19:29:21.509Z,101492.44
2023-01-21T19:31:49.472Z,101498.53
2023-01-21T19:34:17.234Z,101502.94
2023-01-21T19:36:46.604Z,101491.53
2023-01-21T19:39:19.227Z,101494.19
2023-01-21T19:41:48.601Z,101481.81
2023-01-21T19:44:19.379Z,101493.31
2023-01-21T19:46:47.288Z,101493.31
2023-01-21T19:49:17.313Z,101488.91
2023-01-21T19:51:45.199Z,101499.47
2023-01-21T19:54:12.967Z,101501.22
2023-01-21T19:56:40.850Z,101493.28
2023-01-21T19:59:14.327Z,101490.63
2023-01-21T20:01:42.204Z,101494.16
2023-01-21T20:04:10.070Z,101501.19
2023-01-21T20:06:44.597Z,101495.88
2023-01-21T20:09:17.554Z,101503.78
2023-01-21T20:11:45.268Z,101510.81
2023-01-21T20:14:13.138Z,101505.47
2023-01-21T20:16:49.910Z,101501.94
2023-01-21T20:19:19.259Z,101510.72
2023-01-21T20:21:59.901Z,101506.31
2023-01-21T20:24:30.137Z,101503.47
2023-01-21T20:26:59.204Z,101507.03
2023-01-21T20:29:27.176Z,101508.75
2023-01-21T20:31:55.243Z,101510.56
2023-01-21T20:34:23.087Z,101509.66
2023-01-21T20:36:51.851Z,101507.88
2023-01-21T20:39:19.864Z,101508.75
2023-01-21T20:41:47.627Z,101512.25
2023-01-21T20:44:15.632Z,101515.78
2023-01-21T20:46:45.410Z,101505.22
2023-01-21T20:49:13.338Z,101513.16
2023-01-21T20:51:41.036Z,101499.97
2023-01-21T20:54:08.879Z,101497.34
2023-01-21T20:56:38.277Z,101508.78
2023-01-21T20:59:06.215Z,101504.41
2023-01-21T21:01:34.938Z,101493.78
2023-01-21T21:04:02.819Z,101501.72
2023-01-21T21:06:30.895Z,101506.06
2023-01-21T21:08:58.957Z,101499.91
2023-01-21T21:11:26.770Z,101499.94
2023-01-21T21:13:54.563Z,101491.13
2023-01-21T21:16:28.666Z,101500.84
2023-01-21T21:18:56.775Z,101491.16
2023-01-21T21:21:24.795Z,101502.66
2023-01-21T21:23:53.393Z,101493.88
2023-01-21T21:26:29.129Z,101479.81
2023-01-21T21:29:00.063Z,101490.31
2023-01-21T21:31:32.744Z,101497.34
2023-01-21T21:34:00.869Z,101481.50
2023-01-21T21:36:31.277Z,101486.81
2023-01-21T21:39:00.092Z,101487.53
2023-01-21T21:41:46.795Z,101492.84
2023-01-21T21:44:14.616Z,101488.41
2023-01-21T21:47:03.620Z,101478.78
2023-01-21T21:49:32.129Z,101476.97
2023-01-21T21:52:00.902Z,101483.16
2023-01-21T21:54:29.800Z,101487.59
2023-01-21T21:56:57.854Z,101483.19
2023-01-21T21:59:25.812Z,101464.72
2023-01-21T22:01:53.716Z,101467.34
2023-01-21T22:04:22.960Z,101465.59
2023-01-21T22:06:50.693Z,101473.53
2023-01-21T22:09:18.775Z,101473.53
2023-01-21T22:11:46.640Z,101466.47
2023-01-21T22:14:14.813Z,101478.81
2023-01-21T22:16:42.705Z,101466.47
2023-01-21T22:19:11.976Z,101475.28
2023-01-21T22:21:39.744Z,101471.78
2023-01-21T22:24:08.262Z,101449.81
2023-01-21T22:26:36.412Z,101461.25
2023-01-21T22:29:05.313Z,101462.13
2023-01-21T22:31:34.042Z,101461.22
2023-01-21T22:34:01.912Z,101451.56
2023-01-21T22:36:30.926Z,101442.72
2023-01-21T22:38:59.239Z,101458.63
2023-01-21T22:41:27.578Z,101440.97
2023-01-21T22:43:57.203Z,101434.91
2023-01-21T22:46:33.627Z,101449.88
2023-01-21T22:49:01.547Z,101440.19
2023-01-21T22:51:29.541Z,101437.50
2023-01-21T22:53:57.811Z,101433.13
2023-01-21T22:56:44.801Z,101434.03
2023-01-21T22:59:14.477Z,101434.91
2023-01-21T23:01:42.373Z,101420.88
2023-01-21T23:04:11.013Z,101421.78
2023-01-21T23:06:38.916Z,101413.84
2023-01-21T23:09:09.486Z,101420.97
2023-01-21T23:11:39.811Z,101416.53
2023-01-21T23:14:09.875Z,101420.03
2023-01-21T23:16:38.059Z,101412.06
2023-01-21T23:19:05.896Z,101411.19
2023-01-21T23:21:33.958Z,101407.66
2023-01-21T23:24:01.695Z,101402.31
2023-01-21T23:26:29.463Z,101404.13
2023-01-21T23:28:57.755Z,101399.72
2023-01-21T23:31:26.129Z,101393.63
2023-01-21T23:33:56.271Z,101406.78
2023-01-21T23:36:24.694Z,101396.25
2023-01-21T23:38:55.081Z,101398.00
2023-01-21T23:41:22.982Z,101393.63
2023-01-21T23:43:50.732Z,101398.03
2023-01-21T23:46:19.902Z,101392.78
2023-01-21T23:48:48.455Z,101383.13
2023-01-21T23:51:18.331Z,101386.59
2023-01-21T23:53:49.068Z,101379.53
2023-01-21T23:56:22.255Z,101370.72
2023-01-21T23:58:53.584Z,101377.78
